createdAt,value
2019-05-18T00:00:53.182Z,77.47
2019-05-18T00:03:56.811Z,77.72
2019-05-18T00:07:00.351Z,77.80
2019-05-18T00:10:05.350Z,78.44
2019-05-18T00:13:08.877Z,78.84
2019-05-18T00:16:12.612Z,79.20
2019-05-18T00:19:16.296Z,79.84
2019-05-18T00:22:19.877Z,80.14
2019-05-18T00:25:23.478Z,80.33
2019-05-18T00:28:27.118Z,80.63
2019-05-18T00:31:30.743Z,80.37
2019-05-18T00:34:34.373Z,81.00
2019-05-18T00:37:37.961Z,80.97
2019-05-18T00:40:43.635Z,80.77
2019-05-18T00:43:47.197Z,80.45
2019-05-18T00:46:53.942Z,80.18
2019-05-18T00:49:57.721Z,80.29
2019-05-18T00:53:01.288Z,80.45
2019-05-18T00:56:04.947Z,80.66
2019-05-18T00:59:08.535Z,80.75
2019-05-18T01:02:12.093Z,80.53
2019-05-18T01:05:15.768Z,80.56
2019-05-18T01:08:19.409Z,81.12
2019-05-18T01:11:23.007Z,81.28
2019-05-18T01:14:26.590Z,81.40
2019-05-18T01:17:30.235Z,81.46
2019-05-18T01:20:34.479Z,81.50
2019-05-18T01:23:38.091Z,81.36
2019-05-18T01:26:41.749Z,81.10
2019-05-18T01:29:45.471Z,80.55
2019-05-18T01:32:49.132Z,80.48
2019-05-18T01:35:52.713Z,80.76
2019-05-18T01:38:56.327Z,80.78
2019-05-18T01:41:59.927Z,80.96
2019-05-18T01:45:16.452Z,81.17
2019-05-18T01:48:13.621Z,81.12
2019-05-18T01:51:15.405Z,80.97
2019-05-18T01:54:18.965Z,81.19
2019-05-18T01:57:22.526Z,81.13
2019-05-18T02:00:26.195Z,81.42
2019-05-18T02:03:29.778Z,81.50
2019-05-18T02:06:33.348Z,81.78
2019-05-18T02:09:36.908Z,81.61
2019-05-18T02:12:40.485Z,81.83
2019-05-18T02:15:44.030Z,82.13
2019-05-18T02:18:47.616Z,81.99
2019-05-18T02:21:51.243Z,81.99
2019-05-18T02:24:54.730Z,81.84
2019-05-18T02:27:58.328Z,81.99
2019-05-18T02:31:01.989Z,81.83
2019-05-18T02:34:05.656Z,81.14
2019-05-18T02:37:09.373Z,80.40
2019-05-18T02:40:13.183Z,79.93
2019-05-18T02:43:17.374Z,79.93
2019-05-18T02:46:20.972Z,79.94
2019-05-18T02:49:24.513Z,79.68
2019-05-18T02:52:28.130Z,79.76
2019-05-18T02:55:31.690Z,79.29
2019-05-18T02:58:35.265Z,79.40
2019-05-18T03:01:38.857Z,79.82
2019-05-18T03:04:42.352Z,79.63
2019-05-18T03:07:45.920Z,79.96
2019-05-18T03:10:49.599Z,79.87
2019-05-18T03:13:53.323Z,80.13
2019-05-18T03:16:56.895Z,80.49
2019-05-18T03:20:00.489Z,80.69
2019-05-18T03:23:04.096Z,80.93
2019-05-18T03:26:07.678Z,81.17
2019-05-18T03:29:11.257Z,80.81
2019-05-18T03:32:14.818Z,80.81
2019-05-18T03:35:18.409Z,81.26
2019-05-18T03:38:21.987Z,81.17
2019-05-18T03:41:25.598Z,81.09
2019-05-18T03:44:29.199Z,81.29
2019-05-18T03:47:32.775Z,81.06
2019-05-18T03:50:36.300Z,81.27
2019-05-18T03:53:39.845Z,80.62
2019-05-18T03:56:43.344Z,80.54
2019-05-18T03:59:46.893Z,79.89
2019-05-18T04:02:50.752Z,79.70
2019-05-18T04:05:54.334Z,78.88
2019-05-18T04:08:57.905Z,78.54
2019-05-18T04:12:01.490Z,77.74
2019-05-18T04:15:06.987Z,77.06
2019-05-18T04:18:10.538Z,77.27
2019-05-18T04:21:14.116Z,76.68
2019-05-18T04:24:17.693Z,75.72
2019-05-18T04:27:21.223Z,75.47
2019-05-18T04:30:24.803Z,73.91
2019-05-18T04:33:28.327Z,73.57
2019-05-18T04:36:31.902Z,72.30
2019-05-18T04:39:35.423Z,69.78
2019-05-18T04:42:38.992Z,67.92
2019-05-18T04:45:42.611Z,68.15
2019-05-18T04:48:46.177Z,68.48
2019-05-18T04:51:49.689Z,68.40
2019-05-18T04:54:53.279Z,68.88
2019-05-18T04:57:56.787Z,68.41
2019-05-18T05:01:00.440Z,67.36
2019-05-18T05:04:04.050Z,68.02
2019-05-18T05:07:07.642Z,68.20
2019-05-18T05:10:11.350Z,68.48
2019-05-18T05:13:15.867Z,68.69
2019-05-18T05:16:19.476Z,67.55
2019-05-18T05:19:23.168Z,66.57
2019-05-18T05:22:26.754Z,66.24
2019-05-18T05:25:30.338Z,66.29
2019-05-18T05:28:33.916Z,66.07
2019-05-18T05:31:37.519Z,65.66
2019-05-18T05:34:41.066Z,67.40
2019-05-18T05:37:44.723Z,65.69
2019-05-18T05:40:48.256Z,64.75
2019-05-18T05:43:51.875Z,64.68
2019-05-18T05:46:55.537Z,63.72
2019-05-18T05:49:59.146Z,62.29
2019-05-18T05:53:02.702Z,62.46
2019-05-18T05:56:06.285Z,63.22
2019-05-18T05:59:09.854Z,63.08
2019-05-18T06:02:13.428Z,61.95
2019-05-18T06:05:17.120Z,61.13
2019-05-18T06:08:20.751Z,60.80
2019-05-18T06:11:24.325Z,59.48
2019-05-18T06:14:27.959Z,58.62
2019-05-18T06:17:31.693Z,57.47
2019-05-18T06:20:50.133Z,56.92
2019-05-18T06:23:40.782Z,58.75
2019-05-18T06:26:44.523Z,57.83
2019-05-18T06:29:48.172Z,55.89
2019-05-18T06:32:51.846Z,55.52
2019-05-18T06:35:55.557Z,55.87
2019-05-18T06:38:59.126Z,56.88
2019-05-18T06:42:02.777Z,55.02
2019-05-18T06:45:08.844Z,56.25
2019-05-18T06:48:12.546Z,55.36
2019-05-18T06:51:16.253Z,56.31
2019-05-18T06:54:19.964Z,55.67
2019-05-18T06:57:25.646Z,56.10
2019-05-18T07:00:29.445Z,54.39
2019-05-18T07:03:33.103Z,51.53
2019-05-18T07:06:36.787Z,52.41
2019-05-18T07:09:40.424Z,51.70
2019-05-18T07:12:45.717Z,52.64
2019-05-18T07:15:49.378Z,53.41
2019-05-18T07:18:53.132Z,53.06
2019-05-18T07:21:56.790Z,52.91
2019-05-18T07:25:00.420Z,53.68
2019-05-18T07:28:04.245Z,54.04
2019-05-18T07:31:07.830Z,53.33
2019-05-18T07:34:11.467Z,52.83
2019-05-18T07:37:15.278Z,51.79
2019-05-18T07:40:19.070Z,49.37
2019-05-18T07:43:22.989Z,47.65
2019-05-18T07:46:26.629Z,48.61
2019-05-18T07:49:30.279Z,46.87
2019-05-18T07:52:33.972Z,48.06
2019-05-18T07:55:37.675Z,49.31
2019-05-18T07:58:41.333Z,47.17
2019-05-18T08:01:45.017Z,47.38
2019-05-18T08:04:48.795Z,46.55
2019-05-18T08:07:52.490Z,49.08
2019-05-18T08:10:56.080Z,49.43
2019-05-18T08:14:02.721Z,47.66
2019-05-18T08:17:06.341Z,46.04
2019-05-18T08:20:10.258Z,47.25
2019-05-18T08:23:13.871Z,43.93
2019-05-18T08:26:17.587Z,45.51
2019-05-18T08:29:21.205Z,46.54
2019-05-18T08:32:24.832Z,44.92
2019-05-18T08:35:28.547Z,44.07
2019-05-18T08:38:32.379Z,43.67
2019-05-18T08:41:36.044Z,44.45
2019-05-18T08:44:39.651Z,46.10
2019-05-18T08:47:43.512Z,46.79
2019-05-18T08:50:47.109Z,44.75
2019-05-18T08:53:50.792Z,43.64
2019-05-18T08:56:54.528Z,44.52
2019-05-18T08:59:58.172Z,47.12
2019-05-18T09:03:01.791Z,44.33
2019-05-18T09:06:05.614Z,47.00
2019-05-18T09:09:09.393Z,44.78
2019-05-18T09:12:13.044Z,46.83
2019-05-18T09:15:17.113Z,48.58
2019-05-18T09:18:20.822Z,48.05
2019-05-18T09:21:24.440Z,48.09
2019-05-18T09:24:28.099Z,44.95
2019-05-18T09:27:31.944Z,41.71
2019-05-18T09:30:37.315Z,42.28
2019-05-18T09:33:46.914Z,42.39
2019-05-18T09:36:46.335Z,42.53
2019-05-18T09:39:51.616Z,45.60
2019-05-18T09:42:55.407Z,46.67
2019-05-18T09:45:59.099Z,45.69
2019-05-18T09:49:02.852Z,41.80
2019-05-18T09:52:06.555Z,38.20
2019-05-18T09:55:10.337Z,35.53
2019-05-18T09:58:13.959Z,37.80
2019-05-18T10:01:17.902Z,34.33
2019-05-18T10:04:32.045Z,42.21
2019-05-18T10:07:35.892Z,41.41
2019-05-18T10:10:39.597Z,36.50
2019-05-18T10:13:43.260Z,37.29
2019-05-18T10:16:46.941Z,36.04
2019-05-18T10:19:50.593Z,33.21
2019-05-18T10:23:11.359Z,34.23
2019-05-18T10:25:59.781Z,31.03
2019-05-18T10:29:03.397Z,29.79
2019-05-18T10:32:09.724Z,29.13
2019-05-18T10:35:15.831Z,29.83
2019-05-18T10:38:19.490Z,27.78
2019-05-18T10:41:23.199Z,28.12
2019-05-18T10:44:26.841Z,30.95
2019-05-18T10:47:33.198Z,30.02
2019-05-18T10:50:36.860Z,32.00
2019-05-18T10:53:40.441Z,31.21
2019-05-18T10:56:45.214Z,30.75
2019-05-18T10:59:48.954Z,31.94
2019-05-18T11:02:52.867Z,30.76
2019-05-18T11:05:56.496Z,32.18
2019-05-18T11:09:00.126Z,28.94
2019-05-18T11:12:03.869Z,28.38
2019-05-18T11:15:08.787Z,28.69
2019-05-18T11:18:12.975Z,28.85
2019-05-18T11:21:16.608Z,25.53
2019-05-18T11:24:20.299Z,26.76
2019-05-18T11:27:23.974Z,26.76
2019-05-18T11:30:27.841Z,28.35
2019-05-18T11:33:31.499Z,28.85
2019-05-18T11:36:35.101Z,31.36
2019-05-18T11:39:38.786Z,30.32
2019-05-18T11:42:42.396Z,28.27
2019-05-18T11:45:46.057Z,27.23
2019-05-18T11:48:50.121Z,26.42
2019-05-18T11:51:53.774Z,24.83
2019-05-18T11:54:57.390Z,27.16
2019-05-18T11:58:01.067Z,26.52
2019-05-18T12:01:04.705Z,24.00
2019-05-18T12:04:08.363Z,24.51
2019-05-18T12:07:12.090Z,24.51
2019-05-18T12:10:18.360Z,28.62
2019-05-18T12:13:22.505Z,27.35
2019-05-18T12:16:26.338Z,27.35
2019-05-18T12:19:29.963Z,27.35
2019-05-18T12:22:33.555Z,23.98
2019-05-18T12:25:37.242Z,22.62
2019-05-18T12:28:43.153Z,21.71
2019-05-18T12:31:46.882Z,23.05
2019-05-18T12:34:50.491Z,22.80
2019-05-18T12:37:54.190Z,23.61
2019-05-18T12:40:57.858Z,23.54
2019-05-18T12:44:01.643Z,25.90
2019-05-18T12:47:05.316Z,25.90
2019-05-18T12:50:10.475Z,25.84
2019-05-18T12:53:14.089Z,25.84
2019-05-18T12:56:17.797Z,23.84
2019-05-18T12:59:21.443Z,24.81
2019-05-18T13:02:25.103Z,24.81
2019-05-18T13:05:28.714Z,22.69
2019-05-18T13:08:32.374Z,22.37
2019-05-18T13:11:36.020Z,22.88
2019-05-18T13:14:39.698Z,23.99
2019-05-18T13:17:43.345Z,24.15
2019-05-18T13:20:47.084Z,25.63
2019-05-18T13:23:50.681Z,25.55
2019-05-18T13:26:54.338Z,25.55
2019-05-18T13:29:57.968Z,26.16
2019-05-18T13:33:05.865Z,22.65
2019-05-18T13:36:09.481Z,22.65
2019-05-18T13:39:13.193Z,22.12
2019-05-18T13:42:16.873Z,24.25
2019-05-18T13:45:20.849Z,26.92
2019-05-18T13:48:26.005Z,26.92
2019-05-18T13:51:36.506Z,30.23
2019-05-18T13:54:39.300Z,33.02
2019-05-18T13:57:43.022Z,34.52
2019-05-18T14:00:46.629Z,34.93
2019-05-18T14:03:50.273Z,32.79
2019-05-18T14:06:55.408Z,28.41
2019-05-18T14:10:01.940Z,33.06
2019-05-18T14:13:05.584Z,34.70
2019-05-18T14:16:09.231Z,36.94
2019-05-18T14:19:12.819Z,37.03
2019-05-18T14:22:16.504Z,39.15
2019-05-18T14:25:20.511Z,39.80
2019-05-18T14:28:24.105Z,40.79
2019-05-18T14:31:27.770Z,40.81
2019-05-18T14:34:31.501Z,41.41
2019-05-18T14:37:36.827Z,41.95
2019-05-18T14:40:40.602Z,42.62
2019-05-18T14:43:44.282Z,42.09
2019-05-18T14:46:47.972Z,42.28
2019-05-18T14:49:51.654Z,43.05
2019-05-18T14:52:55.364Z,45.02
2019-05-18T14:55:59.008Z,45.29
2019-05-18T14:59:02.734Z,44.69
2019-05-18T15:02:06.418Z,44.40
2019-05-18T15:05:10.443Z,44.25
2019-05-18T15:08:14.111Z,44.87
2019-05-18T15:11:17.754Z,44.99
2019-05-18T15:14:21.383Z,44.90
2019-05-18T15:17:25.071Z,45.74
2019-05-18T15:20:28.733Z,45.61
2019-05-18T15:23:32.342Z,44.80
2019-05-18T15:26:36.101Z,45.21
2019-05-18T15:29:39.739Z,45.71
2019-05-18T15:32:43.397Z,46.27
2019-05-18T15:35:47.118Z,46.65
2019-05-18T15:38:50.709Z,45.13
2019-05-18T15:41:54.374Z,45.81
2019-05-18T15:44:58.115Z,45.25
2019-05-18T15:48:01.799Z,45.77
2019-05-18T15:51:05.563Z,46.08
2019-05-18T15:54:09.264Z,46.29
2019-05-18T15:57:12.928Z,46.25
2019-05-18T16:00:17.077Z,46.05
2019-05-18T16:03:20.940Z,47.25
2019-05-18T16:06:25.031Z,47.20
2019-05-18T16:09:28.916Z,47.85
2019-05-18T16:12:32.550Z,47.70
2019-05-18T16:15:36.216Z,48.36
2019-05-18T16:18:39.828Z,48.08
2019-05-18T16:21:43.526Z,47.91
2019-05-18T16:24:47.168Z,48.71
2019-05-18T16:27:50.859Z,48.11
2019-05-18T16:30:54.465Z,47.44
2019-05-18T16:33:58.190Z,48.13
2019-05-18T16:37:01.946Z,48.50
2019-05-18T16:40:07.264Z,49.00
2019-05-18T16:43:10.927Z,48.96
2019-05-18T16:46:14.545Z,49.08
2019-05-18T16:49:18.219Z,49.05
2019-05-18T16:52:21.863Z,49.69
2019-05-18T16:55:25.524Z,49.52
2019-05-18T16:58:29.138Z,49.30
2019-05-18T17:01:32.800Z,49.34
2019-05-18T17:04:36.484Z,48.46
2019-05-18T17:07:40.284Z,48.52
2019-05-18T17:10:43.960Z,48.85
2019-05-18T17:13:47.596Z,48.83
2019-05-18T17:16:54.027Z,48.83
2019-05-18T17:19:57.652Z,48.87
2019-05-18T17:23:01.394Z,48.70
2019-05-18T17:26:05.083Z,49.07
2019-05-18T17:29:08.728Z,49.26
2019-05-18T17:32:12.331Z,48.63
2019-05-18T17:35:16.344Z,49.01
2019-05-18T17:38:20.031Z,49.09
2019-05-18T17:41:23.680Z,49.16
2019-05-18T17:44:27.313Z,49.50
2019-05-18T17:47:31.013Z,49.97
2019-05-18T17:50:34.617Z,50.61
2019-05-18T17:53:38.302Z,50.92
2019-05-18T17:56:41.939Z,51.29
2019-05-18T17:59:45.695Z,51.28
2019-05-18T18:02:49.278Z,51.69
2019-05-18T18:05:52.935Z,51.95
2019-05-18T18:08:56.536Z,52.05
2019-05-18T18:12:00.264Z,52.66
2019-05-18T18:15:05.007Z,52.35
2019-05-18T18:18:08.719Z,52.61
2019-05-18T18:21:12.604Z,52.83
2019-05-18T18:24:16.257Z,53.54
2019-05-18T18:27:25.392Z,53.66
2019-05-18T18:30:25.311Z,53.92
2019-05-18T18:33:28.964Z,54.29
2019-05-18T18:36:32.607Z,54.25
2019-05-18T18:39:36.334Z,54.27
2019-05-18T18:42:40.011Z,54.72
2019-05-18T18:45:45.515Z,55.00
2019-05-18T18:48:50.191Z,55.66
2019-05-18T18:51:53.808Z,56.30
2019-05-18T18:54:57.503Z,55.64
2019-05-18T18:58:01.188Z,56.40
2019-05-18T19:01:04.822Z,56.43
2019-05-18T19:04:08.455Z,56.30
2019-05-18T19:07:12.175Z,57.34
2019-05-18T19:10:16.375Z,56.78
2019-05-18T19:13:23.077Z,57.21
2019-05-18T19:16:26.816Z,57.04
2019-05-18T19:19:30.525Z,57.15
2019-05-18T19:22:34.472Z,57.41
2019-05-18T19:25:38.146Z,57.23
2019-05-18T19:28:41.854Z,57.21
2019-05-18T19:31:45.517Z,57.45
2019-05-18T19:34:49.191Z,57.95
2019-05-18T19:37:52.842Z,58.18
2019-05-18T19:40:56.513Z,58.33
2019-05-18T19:44:00.117Z,58.97
2019-05-18T19:47:03.781Z,59.37
2019-05-18T19:50:08.651Z,59.14
2019-05-18T19:53:13.305Z,59.76
2019-05-18T19:56:17.013Z,60.53
2019-05-18T19:59:20.740Z,60.33
2019-05-18T20:02:29.093Z,60.04
2019-05-18T20:05:32.594Z,60.35
2019-05-18T20:08:36.318Z,60.88
2019-05-18T20:11:39.959Z,61.22
2019-05-18T20:14:43.646Z,61.60
2019-05-18T20:17:51.706Z,61.91
2019-05-18T20:20:55.362Z,62.29
2019-05-18T20:23:59.005Z,62.40
2019-05-18T20:27:04.536Z,62.43
2019-05-18T20:30:09.597Z,62.98
2019-05-18T20:33:15.648Z,63.10
2019-05-18T20:36:23.829Z,63.05
2019-05-18T20:39:37.368Z,63.63
2019-05-18T20:42:40.973Z,63.75
2019-05-18T20:45:44.639Z,64.13
2019-05-18T20:48:48.299Z,64.29
2019-05-18T20:51:55.057Z,64.83
2019-05-18T20:54:58.761Z,64.44
2019-05-18T20:58:02.488Z,64.89
2019-05-18T21:01:06.121Z,65.08
2019-05-18T21:04:09.773Z,65.05
2019-05-18T21:07:13.404Z,64.97
2019-05-18T21:10:17.244Z,65.47
2019-05-18T21:13:20.867Z,65.48
2019-05-18T21:16:24.611Z,65.67
2019-05-18T21:19:28.300Z,65.18
2019-05-18T21:22:31.984Z,65.07
2019-05-18T21:25:35.961Z,65.28
2019-05-18T21:28:53.406Z,65.02
2019-05-18T21:31:44.985Z,65.40
2019-05-18T21:34:48.659Z,65.52
2019-05-18T21:37:52.335Z,65.69
2019-05-18T21:40:55.991Z,65.93
2019-05-18T21:43:59.614Z,66.12
2019-05-18T21:47:03.354Z,66.02
2019-05-18T21:50:07.977Z,66.04
2019-05-18T21:53:11.877Z,66.30
2019-05-18T21:56:15.570Z,66.58
2019-05-18T21:59:20.888Z,66.83
2019-05-18T22:02:24.704Z,67.43
2019-05-18T22:05:28.399Z,67.65
2019-05-18T22:08:32.071Z,67.94
2019-05-18T22:11:35.955Z,67.76
2019-05-18T22:14:39.706Z,68.05
2019-05-18T22:18:01.214Z,68.16
2019-05-18T22:21:06.696Z,68.50
2019-05-18T22:24:11.802Z,68.69
2019-05-18T22:27:21.335Z,68.94
2019-05-18T22:30:26.663Z,69.22
2019-05-18T22:33:33.134Z,69.35
2019-05-18T22:36:36.791Z,69.10
2019-05-18T22:39:40.413Z,69.55
2019-05-18T22:42:44.188Z,69.54
2019-05-18T22:45:49.503Z,69.30
2019-05-18T22:48:53.139Z,71.05
2019-05-18T22:51:58.319Z,70.49
2019-05-18T22:55:04.798Z,71.17
2019-05-18T22:58:08.484Z,71.12
2019-05-18T23:01:14.525Z,71.51
2019-05-18T23:04:19.591Z,71.60
2019-05-18T23:07:35.123Z,71.94
2019-05-18T23:10:35.933Z,71.37
2019-05-18T23:13:45.434Z,72.17
2019-05-18T23:16:53.134Z,71.88
2019-05-18T23:19:57.980Z,71.85
2019-05-18T23:23:01.660Z,71.90
2019-05-18T23:26:06.737Z,72.23
2019-05-18T23:29:11.426Z,72.04
2019-05-18T23:32:22.594Z,72.49
2019-05-18T23:35:26.167Z,72.56
2019-05-18T23:38:29.796Z,72.20
2019-05-18T23:41:33.433Z,72.51
2019-05-18T23:44:37.109Z,72.67
2019-05-18T23:47:43.958Z,72.58
2019-05-18T23:50:59.875Z,72.59
2019-05-18T23:54:06.921Z,72.76
2019-05-18T23:57:10.445Z,72.74
